sensor_id;sensor_type;location;lat;lon;timestamp;P1;durP1;ratioP1;P2;durP2;ratioP2
75823;SDS011;64457;51.976;9.834;2023-02-28T00:00:53;7.83;;;4.10;;
75823;SDS011;64457;51.976;9.834;2023-02-28T00:03:20;7.27;;;4.00;;
75823;SDS011;64457;51.976;9.834;2023-02-28T00:05:47;9.83;;;4.00;;
75823;SDS011;64457;51.976;9.834;2023-02-28T00:08:14;9.87;;;4.67;;
75823;SDS011;64457;51.976;9.834;2023-02-28T00:10:42;6.07;;;4.10;;
75823;SDS011;64457;51.976;9.834;2023-02-28T00:13:10;12.30;;;5.20;;
75823;SDS011;64457;51.976;9.834;2023-02-28T00:15:38;8.57;;;4.47;;
75823;SDS011;64457;51.976;9.834;2023-02-28T00:18:05;6.60;;;4.10;;
75823;SDS011;64457;51.976;9.834;2023-02-28T00:20:32;7.67;;;4.43;;
75823;SDS011;64457;51.976;9.834;2023-02-28T00:23:00;11.33;;;5.40;;
75823;SDS011;64457;51.976;9.834;2023-02-28T00:25:27;9.30;;;4.93;;
75823;SDS011;64457;51.976;9.834;2023-02-28T00:27:54;7.80;;;4.63;;
75823;SDS011;64457;51.976;9.834;2023-02-28T00:30:23;7.57;;;4.00;;
75823;SDS011;64457;51.976;9.834;2023-02-28T00:32:50;8.63;;;4.83;;
75823;SDS011;64457;51.976;9.834;2023-02-28T00:35:18;6.13;;;3.60;;
75823;SDS011;64457;51.976;9.834;2023-02-28T00:37:46;8.20;;;4.10;;
75823;SDS011;64457;51.976;9.834;2023-02-28T00:40:15;6.40;;;4.13;;
75823;SDS011;64457;51.976;9.834;2023-02-28T00:42:43;8.07;;;4.53;;
75823;SDS011;64457;51.976;9.834;2023-02-28T00:45:10;7.90;;;4.50;;
75823;SDS011;64457;51.976;9.834;2023-02-28T00:47:39;9.70;;;4.63;;
75823;SDS011;64457;51.976;9.834;2023-02-28T00:50:06;8.03;;;4.63;;
75823;SDS011;64457;51.976;9.834;2023-02-28T00:52:35;7.60;;;4.13;;
75823;SDS011;64457;51.976;9.834;2023-02-28T00:55:02;13.33;;;4.30;;
75823;SDS011;64457;51.976;9.834;2023-02-28T00:57:30;7.27;;;4.40;;
75823;SDS011;64457;51.976;9.834;2023-02-28T00:59:57;7.70;;;4.60;;
75823;SDS011;64457;51.976;9.834;2023-02-28T01:02:25;7.70;;;4.10;;
75823;SDS011;64457;51.976;9.834;2023-02-28T01:04:53;6.67;;;3.20;;
75823;SDS011;64457;51.976;9.834;2023-02-28T01:07:21;7.77;;;3.33;;
75823;SDS011;64457;51.976;9.834;2023-02-28T01:09:49;6.50;;;3.10;;
75823;SDS011;64457;51.976;9.834;2023-02-28T01:12:16;5.30;;;3.10;;
75823;SDS011;64457;51.976;9.834;2023-02-28T01:14:43;6.57;;;3.70;;
75823;SDS011;64457;51.976;9.834;2023-02-28T01:17:10;6.20;;;3.40;;
75823;SDS011;64457;51.976;9.834;2023-02-28T01:19:37;6.35;;;3.58;;
75823;SDS011;64457;51.976;9.834;2023-02-28T01:22:06;5.57;;;3.38;;
75823;SDS011;64457;51.976;9.834;2023-02-28T01:24:33;6.00;;;3.40;;
75823;SDS011;64457;51.976;9.834;2023-02-28T01:27:00;8.17;;;3.70;;
75823;SDS011;64457;51.976;9.834;2023-02-28T01:29:28;5.70;;;3.20;;
75823;SDS011;64457;51.976;9.834;2023-02-28T01:31:55;8.50;;;3.83;;
75823;SDS011;64457;51.976;9.834;2023-02-28T01:34:24;8.70;;;3.83;;
75823;SDS011;64457;51.976;9.834;2023-02-28T01:36:51;5.88;;;3.40;;
75823;SDS011;64457;51.976;9.834;2023-02-28T01:39:20;5.50;;;3.45;;
75823;SDS011;64457;51.976;9.834;2023-02-28T01:41:48;9.70;;;3.90;;
75823;SDS011;64457;51.976;9.834;2023-02-28T01:47:21;11.02;;;5.03;;
75823;SDS011;64457;51.976;9.834;2023-02-28T01:49:49;9.97;;;4.93;;
75823;SDS011;64457;51.976;9.834;2023-02-28T01:52:17;7.15;;;4.22;;
75823;SDS011;64457;51.976;9.834;2023-02-28T01:54:47;7.82;;;4.30;;
75823;SDS011;64457;51.976;9.834;2023-02-28T01:57:19;8.43;;;4.80;;
75823;SDS011;64457;51.976;9.834;2023-02-28T01:59:51;9.00;;;4.50;;
75823;SDS011;64457;51.976;9.834;2023-02-28T02:02:21;6.72;;;3.70;;
75823;SDS011;64457;51.976;9.834;2023-02-28T02:04:53;7.43;;;4.10;;
75823;SDS011;64457;51.976;9.834;2023-02-28T02:07:26;8.45;;;4.40;;
75823;SDS011;64457;51.976;9.834;2023-02-28T02:10:03;9.50;;;4.93;;
75823;SDS011;64457;51.976;9.834;2023-02-28T02:12:38;7.47;;;4.50;;
75823;SDS011;64457;51.976;9.834;2023-02-28T02:15:32;8.83;;;4.30;;
75823;SDS011;64457;51.976;9.834;2023-02-28T02:18:07;8.75;;;4.15;;
75823;SDS011;64457;51.976;9.834;2023-02-28T02:27:22;8.30;;;4.07;;
75823;SDS011;64457;51.976;9.834;2023-02-28T02:33:26;7.70;;;4.15;;
75823;SDS011;64457;51.976;9.834;2023-02-28T02:36:31;9.65;;;4.90;;
75823;SDS011;64457;51.976;9.834;2023-02-28T02:39:04;7.22;;;4.75;;
75823;SDS011;64457;51.976;9.834;2023-02-28T02:41:40;5.90;;;4.20;;
75823;SDS011;64457;51.976;9.834;2023-02-28T02:44:15;5.95;;;4.00;;
75823;SDS011;64457;51.976;9.834;2023-02-28T02:46:48;7.15;;;4.20;;
75823;SDS011;64457;51.976;9.834;2023-02-28T02:49:19;7.93;;;4.07;;
75823;SDS011;64457;51.976;9.834;2023-02-28T02:51:52;7.40;;;4.10;;
75823;SDS011;64457;51.976;9.834;2023-02-28T02:54:22;8.38;;;4.60;;
75823;SDS011;64457;51.976;9.834;2023-02-28T02:56:53;7.40;;;4.45;;
75823;SDS011;64457;51.976;9.834;2023-02-28T02:59:26;8.82;;;4.05;;
75823;SDS011;64457;51.976;9.834;2023-02-28T03:01:56;7.15;;;3.42;;
75823;SDS011;64457;51.976;9.834;2023-02-28T03:04:28;8.23;;;4.00;;
75823;SDS011;64457;51.976;9.834;2023-02-28T03:07:02;7.05;;;3.60;;
75823;SDS011;64457;51.976;9.834;2023-02-28T03:09:32;8.63;;;3.93;;
75823;SDS011;64457;51.976;9.834;2023-02-28T03:12:00;6.87;;;3.80;;
75823;SDS011;64457;51.976;9.834;2023-02-28T03:14:32;6.65;;;3.42;;
75823;SDS011;64457;51.976;9.834;2023-02-28T03:17:13;6.20;;;3.70;;
75823;SDS011;64457;51.976;9.834;2023-02-28T03:20:06;5.43;;;3.17;;
75823;SDS011;64457;51.976;9.834;2023-02-28T03:22:49;7.30;;;3.67;;
75823;SDS011;64457;51.976;9.834;2023-02-28T03:25:27;5.17;;;3.10;;
75823;SDS011;64457;51.976;9.834;2023-02-28T03:28:04;5.37;;;3.30;;
75823;SDS011;64457;51.976;9.834;2023-02-28T03:30:42;4.25;;;2.60;;
75823;SDS011;64457;51.976;9.834;2023-02-28T03:33:20;4.85;;;2.88;;
75823;SDS011;64457;51.976;9.834;2023-02-28T03:35:51;5.70;;;3.15;;
75823;SDS011;64457;51.976;9.834;2023-02-28T03:38:25;4.30;;;2.80;;
75823;SDS011;64457;51.976;9.834;2023-02-28T03:40:58;5.63;;;2.90;;
75823;SDS011;64457;51.976;9.834;2023-02-28T03:43:29;3.83;;;2.45;;
75823;SDS011;64457;51.976;9.834;2023-02-28T03:46:01;4.28;;;2.40;;
75823;SDS011;64457;51.976;9.834;2023-02-28T03:48:38;6.95;;;3.40;;
75823;SDS011;64457;51.976;9.834;2023-02-28T03:51:11;5.60;;;2.63;;
75823;SDS011;64457;51.976;9.834;2023-02-28T03:53:44;4.60;;;2.78;;
75823;SDS011;64457;51.976;9.834;2023-02-28T03:56:15;5.60;;;2.65;;
75823;SDS011;64457;51.976;9.834;2023-02-28T03:58:47;4.20;;;2.60;;
75823;SDS011;64457;51.976;9.834;2023-02-28T04:01:21;4.40;;;2.63;;
75823;SDS011;64457;51.976;9.834;2023-02-28T04:03:54;4.68;;;2.45;;
75823;SDS011;64457;51.976;9.834;2023-02-28T04:06:22;4.27;;;2.80;;
75823;SDS011;64457;51.976;9.834;2023-02-28T04:08:51;4.60;;;2.60;;
75823;SDS011;64457;51.976;9.834;2023-02-28T04:11:21;5.23;;;2.90;;
75823;SDS011;64457;51.976;9.834;2023-02-28T04:13:53;3.50;;;2.50;;
75823;SDS011;64457;51.976;9.834;2023-02-28T04:16:20;4.47;;;2.50;;
75823;SDS011;64457;51.976;9.834;2023-02-28T04:18:47;4.40;;;2.92;;
75823;SDS011;64457;51.976;9.834;2023-02-28T04:21:15;5.78;;;3.45;;
75823;SDS011;64457;51.976;9.834;2023-02-28T04:23:45;5.67;;;3.03;;
75823;SDS011;64457;51.976;9.834;2023-02-28T04:26:14;4.35;;;2.75;;
75823;SDS011;64457;51.976;9.834;2023-02-28T04:28:41;5.03;;;2.78;;
75823;SDS011;64457;51.976;9.834;2023-02-28T04:31:08;4.28;;;2.80;;
75823;SDS011;64457;51.976;9.834;2023-02-28T04:33:36;5.03;;;3.33;;
75823;SDS011;64457;51.976;9.834;2023-02-28T04:36:04;4.50;;;2.73;;
75823;SDS011;64457;51.976;9.834;2023-02-28T04:38:35;6.43;;;3.08;;
75823;SDS011;64457;51.976;9.834;2023-02-28T04:41:04;8.30;;;3.25;;
75823;SDS011;64457;51.976;9.834;2023-02-28T04:43:33;3.97;;;2.67;;
75823;SDS011;64457;51.976;9.834;2023-02-28T04:46:02;6.50;;;3.17;;
75823;SDS011;64457;51.976;9.834;2023-02-28T04:48:32;5.18;;;3.13;;
75823;SDS011;64457;51.976;9.834;2023-02-28T04:51:00;5.07;;;3.22;;
75823;SDS011;64457;51.976;9.834;2023-02-28T04:53:28;5.00;;;2.80;;
75823;SDS011;64457;51.976;9.834;2023-02-28T04:55:56;4.82;;;2.95;;
75823;SDS011;64457;51.976;9.834;2023-02-28T04:58:24;5.78;;;3.17;;
75823;SDS011;64457;51.976;9.834;2023-02-28T05:00:53;5.35;;;3.20;;
75823;SDS011;64457;51.976;9.834;2023-02-28T05:03:27;5.40;;;2.80;;
75823;SDS011;64457;51.976;9.834;2023-02-28T05:05:55;4.90;;;3.15;;
75823;SDS011;64457;51.976;9.834;2023-02-28T05:08:22;4.95;;;3.10;;
75823;SDS011;64457;51.976;9.834;2023-02-28T05:10:50;4.40;;;3.17;;
75823;SDS011;64457;51.976;9.834;2023-02-28T05:13:17;4.85;;;3.10;;
75823;SDS011;64457;51.976;9.834;2023-02-28T05:15:44;4.93;;;3.20;;
75823;SDS011;64457;51.976;9.834;2023-02-28T05:18:13;6.30;;;3.58;;
75823;SDS011;64457;51.976;9.834;2023-02-28T05:20:40;9.75;;;4.95;;
75823;SDS011;64457;51.976;9.834;2023-02-28T05:23:08;6.50;;;3.73;;
75823;SDS011;64457;51.976;9.834;2023-02-28T05:25:38;8.35;;;3.65;;
75823;SDS011;64457;51.976;9.834;2023-02-28T05:28:06;7.30;;;3.63;;
75823;SDS011;64457;51.976;9.834;2023-02-28T05:30:34;6.68;;;3.55;;
75823;SDS011;64457;51.976;9.834;2023-02-28T05:33:01;9.02;;;4.15;;
75823;SDS011;64457;51.976;9.834;2023-02-28T05:35:30;7.25;;;3.75;;
75823;SDS011;64457;51.976;9.834;2023-02-28T05:37:57;9.10;;;3.90;;
75823;SDS011;64457;51.976;9.834;2023-02-28T05:40:25;6.93;;;3.83;;
75823;SDS011;64457;51.976;9.834;2023-02-28T05:42:52;5.03;;;2.88;;
75823;SDS011;64457;51.976;9.834;2023-02-28T05:45:20;5.25;;;2.80;;
75823;SDS011;64457;51.976;9.834;2023-02-28T05:47:47;5.82;;;3.38;;
75823;SDS011;64457;51.976;9.834;2023-02-28T05:50:14;5.47;;;3.35;;
75823;SDS011;64457;51.976;9.834;2023-02-28T05:52:43;6.82;;;3.53;;
75823;SDS011;64457;51.976;9.834;2023-02-28T05:55:10;7.82;;;3.90;;
75823;SDS011;64457;51.976;9.834;2023-02-28T05:57:38;6.15;;;4.07;;
75823;SDS011;64457;51.976;9.834;2023-02-28T06:00:05;7.47;;;4.28;;
75823;SDS011;64457;51.976;9.834;2023-02-28T06:02:40;6.47;;;4.10;;
75823;SDS011;64457;51.976;9.834;2023-02-28T06:05:08;8.18;;;4.28;;
75823;SDS011;64457;51.976;9.834;2023-02-28T06:07:43;10.43;;;5.85;;
75823;SDS011;64457;51.976;9.834;2023-02-28T06:10:11;9.40;;;5.32;;
75823;SDS011;64457;51.976;9.834;2023-02-28T06:12:39;8.77;;;4.55;;
75823;SDS011;64457;51.976;9.834;2023-02-28T06:15:09;9.43;;;5.10;;
75823;SDS011;64457;51.976;9.834;2023-02-28T06:17:39;7.55;;;4.30;;
75823;SDS011;64457;51.976;9.834;2023-02-28T06:20:07;10.38;;;5.65;;
75823;SDS011;64457;51.976;9.834;2023-02-28T06:22:39;8.38;;;4.90;;
75823;SDS011;64457;51.976;9.834;2023-02-28T06:25:08;15.13;;;5.32;;
75823;SDS011;64457;51.976;9.834;2023-02-28T06:27:37;8.45;;;5.40;;
75823;SDS011;64457;51.976;9.834;2023-02-28T06:30:04;12.02;;;6.80;;
75823;SDS011;64457;51.976;9.834;2023-02-28T06:32:33;11.65;;;7.00;;
75823;SDS011;64457;51.976;9.834;2023-02-28T06:35:01;11.90;;;6.28;;
75823;SDS011;64457;51.976;9.834;2023-02-28T06:37:28;11.00;;;6.30;;
75823;SDS011;64457;51.976;9.834;2023-02-28T06:39:57;11.02;;;6.53;;
75823;SDS011;64457;51.976;9.834;2023-02-28T06:42:25;8.30;;;5.50;;
75823;SDS011;64457;51.976;9.834;2023-02-28T06:44:53;11.07;;;6.35;;
75823;SDS011;64457;51.976;9.834;2023-02-28T06:47:21;12.00;;;6.30;;
75823;SDS011;64457;51.976;9.834;2023-02-28T06:49:49;8.80;;;5.20;;
75823;SDS011;64457;51.976;9.834;2023-02-28T06:52:17;8.17;;;5.40;;
75823;SDS011;64457;51.976;9.834;2023-02-28T06:54:44;7.68;;;5.20;;
75823;SDS011;64457;51.976;9.834;2023-02-28T06:57:11;8.15;;;4.45;;
75823;SDS011;64457;51.976;9.834;2023-02-28T06:59:40;9.15;;;5.22;;
75823;SDS011;64457;51.976;9.834;2023-02-28T07:02:07;7.17;;;4.60;;
75823;SDS011;64457;51.976;9.834;2023-02-28T07:04:35;10.65;;;5.00;;
75823;SDS011;64457;51.976;9.834;2023-02-28T07:07:02;7.72;;;4.80;;
75823;SDS011;64457;51.976;9.834;2023-02-28T07:09:29;11.87;;;4.70;;
75823;SDS011;64457;51.976;9.834;2023-02-28T07:11:56;10.17;;;5.60;;
75823;SDS011;64457;51.976;9.834;2023-02-28T07:14:24;9.87;;;6.00;;
75823;SDS011;64457;51.976;9.834;2023-02-28T07:16:53;12.07;;;5.50;;
75823;SDS011;64457;51.976;9.834;2023-02-28T07:19:20;11.20;;;5.57;;
75823;SDS011;64457;51.976;9.834;2023-02-28T07:21:48;12.85;;;5.75;;
75823;SDS011;64457;51.976;9.834;2023-02-28T07:24:15;6.30;;;4.73;;
75823;SDS011;64457;51.976;9.834;2023-02-28T07:26:43;7.93;;;4.60;;
75823;SDS011;64457;51.976;9.834;2023-02-28T07:29:10;9.27;;;4.37;;
75823;SDS011;64457;51.976;9.834;2023-02-28T07:31:37;8.37;;;4.43;;
75823;SDS011;64457;51.976;9.834;2023-02-28T07:34:06;8.80;;;4.47;;
75823;SDS011;64457;51.976;9.834;2023-02-28T07:36:34;8.07;;;5.10;;
75823;SDS011;64457;51.976;9.834;2023-02-28T07:39:01;7.57;;;4.87;;
75823;SDS011;64457;51.976;9.834;2023-02-28T07:41:29;9.67;;;5.57;;
75823;SDS011;64457;51.976;9.834;2023-02-28T07:43:59;9.90;;;6.03;;
75823;SDS011;64457;51.976;9.834;2023-02-28T07:46:28;8.47;;;5.60;;
75823;SDS011;64457;51.976;9.834;2023-02-28T07:49:02;10.13;;;5.60;;
75823;SDS011;64457;51.976;9.834;2023-02-28T07:51:31;9.90;;;5.27;;
75823;SDS011;64457;51.976;9.834;2023-02-28T07:53:58;7.90;;;4.57;;
75823;SDS011;64457;51.976;9.834;2023-02-28T07:56:26;10.63;;;5.40;;
75823;SDS011;64457;51.976;9.834;2023-02-28T07:58:53;11.27;;;6.10;;
75823;SDS011;64457;51.976;9.834;2023-02-28T08:01:20;9.77;;;5.60;;
75823;SDS011;64457;51.976;9.834;2023-02-28T08:03:47;8.07;;;4.80;;
75823;SDS011;64457;51.976;9.834;2023-02-28T08:06:15;8.27;;;5.20;;
75823;SDS011;64457;51.976;9.834;2023-02-28T08:08:46;8.93;;;5.60;;
75823;SDS011;64457;51.976;9.834;2023-02-28T08:11:13;8.77;;;5.00;;
75823;SDS011;64457;51.976;9.834;2023-02-28T08:13:41;9.23;;;5.20;;
75823;SDS011;64457;51.976;9.834;2023-02-28T08:16:09;10.73;;;5.10;;
75823;SDS011;64457;51.976;9.834;2023-02-28T08:18:37;10.53;;;5.50;;
75823;SDS011;64457;51.976;9.834;2023-02-28T08:21:07;15.83;;;5.43;;
75823;SDS011;64457;51.976;9.834;2023-02-28T08:23:36;9.23;;;5.63;;
75823;SDS011;64457;51.976;9.834;2023-02-28T08:26:05;9.80;;;5.70;;
75823;SDS011;64457;51.976;9.834;2023-02-28T08:28:33;13.67;;;5.70;;
75823;SDS011;64457;51.976;9.834;2023-02-28T08:31:01;9.40;;;5.67;;
75823;SDS011;64457;51.976;9.834;2023-02-28T08:33:35;10.37;;;5.97;;
75823;SDS011;64457;51.976;9.834;2023-02-28T08:36:04;10.73;;;5.57;;
75823;SDS011;64457;51.976;9.834;2023-02-28T08:38:33;9.03;;;5.47;;
75823;SDS011;64457;51.976;9.834;2023-02-28T08:41:01;9.00;;;5.50;;
75823;SDS011;64457;51.976;9.834;2023-02-28T08:43:32;9.40;;;5.70;;
75823;SDS011;64457;51.976;9.834;2023-02-28T08:46:01;9.50;;;5.37;;
75823;SDS011;64457;51.976;9.834;2023-02-28T08:48:30;10.63;;;5.63;;
75823;SDS011;64457;51.976;9.834;2023-02-28T08:50:59;9.87;;;5.93;;
75823;SDS011;64457;51.976;9.834;2023-02-28T08:53:28;10.03;;;5.97;;
75823;SDS011;64457;51.976;9.834;2023-02-28T08:55:56;10.60;;;5.73;;
75823;SDS011;64457;51.976;9.834;2023-02-28T08:58:26;12.17;;;6.13;;
75823;SDS011;64457;51.976;9.834;2023-02-28T09:00:54;15.97;;;7.13;;
75823;SDS011;64457;51.976;9.834;2023-02-28T09:03:22;11.23;;;5.70;;
75823;SDS011;64457;51.976;9.834;2023-02-28T09:05:54;10.37;;;5.70;;
75823;SDS011;64457;51.976;9.834;2023-02-28T09:08:22;13.23;;;6.00;;
75823;SDS011;64457;51.976;9.834;2023-02-28T09:10:51;12.63;;;6.70;;
75823;SDS011;64457;51.976;9.834;2023-02-28T09:13:19;17.33;;;7.63;;
75823;SDS011;64457;51.976;9.834;2023-02-28T09:15:48;16.57;;;6.80;;
75823;SDS011;64457;51.976;9.834;2023-02-28T09:18:15;14.83;;;6.63;;
75823;SDS011;64457;51.976;9.834;2023-02-28T09:20:43;11.83;;;7.37;;
75823;SDS011;64457;51.976;9.834;2023-02-28T09:23:11;13.50;;;6.77;;
75823;SDS011;64457;51.976;9.834;2023-02-28T09:25:44;10.93;;;5.97;;
75823;SDS011;64457;51.976;9.834;2023-02-28T09:28:13;9.83;;;5.40;;
75823;SDS011;64457;51.976;9.834;2023-02-28T09:30:42;11.20;;;5.50;;
75823;SDS011;64457;51.976;9.834;2023-02-28T09:33:13;10.90;;;6.03;;
75823;SDS011;64457;51.976;9.834;2023-02-28T09:35:42;11.00;;;5.57;;
75823;SDS011;64457;51.976;9.834;2023-02-28T09:38:09;11.90;;;5.83;;
75823;SDS011;64457;51.976;9.834;2023-02-28T09:40:37;10.90;;;5.80;;
75823;SDS011;64457;51.976;9.834;2023-02-28T09:43:17;10.57;;;5.77;;
75823;SDS011;64457;51.976;9.834;2023-02-28T09:45:48;13.67;;;7.27;;
75823;SDS011;64457;51.976;9.834;2023-02-28T09:48:26;10.67;;;5.80;;
75823;SDS011;64457;51.976;9.834;2023-02-28T09:51:00;11.13;;;4.90;;
75823;SDS011;64457;51.976;9.834;2023-02-28T09:53:32;10.00;;;5.20;;
75823;SDS011;64457;51.976;9.834;2023-02-28T09:56:05;9.17;;;4.00;;
75823;SDS011;64457;51.976;9.834;2023-02-28T09:58:37;8.37;;;3.73;;
75823;SDS011;64457;51.976;9.834;2023-02-28T10:01:14;12.40;;;3.93;;
75823;SDS011;64457;51.976;9.834;2023-02-28T10:03:52;10.57;;;3.57;;
75823;SDS011;64457;51.976;9.834;2023-02-28T10:06:26;8.17;;;3.10;;
75823;SDS011;64457;51.976;9.834;2023-02-28T10:08:59;9.83;;;3.20;;
75823;SDS011;64457;51.976;9.834;2023-02-28T10:11:32;7.87;;;2.80;;
75823;SDS011;64457;51.976;9.834;2023-02-28T10:14:02;10.20;;;2.90;;
75823;SDS011;64457;51.976;9.834;2023-02-28T10:16:38;7.27;;;2.80;;
75823;SDS011;64457;51.976;9.834;2023-02-28T10:19:15;8.50;;;2.73;;
75823;SDS011;64457;51.976;9.834;2023-02-28T10:21:47;8.03;;;2.80;;
75823;SDS011;64457;51.976;9.834;2023-02-28T10:24:23;6.97;;;2.60;;
75823;SDS011;64457;51.976;9.834;2023-02-28T10:26:56;7.90;;;2.60;;
75823;SDS011;64457;51.976;9.834;2023-02-28T10:29:29;7.30;;;2.30;;
75823;SDS011;64457;51.976;9.834;2023-02-28T10:32:00;8.53;;;2.33;;
75823;SDS011;64457;51.976;9.834;2023-02-28T10:34:31;7.10;;;2.70;;
75823;SDS011;64457;51.976;9.834;2023-02-28T10:36:58;8.20;;;2.50;;
75823;SDS011;64457;51.976;9.834;2023-02-28T10:39:36;9.17;;;2.30;;
75823;SDS011;64457;51.976;9.834;2023-02-28T10:42:05;6.50;;;2.63;;
75823;SDS011;64457;51.976;9.834;2023-02-28T10:44:57;10.23;;;3.10;;
75823;SDS011;64457;51.976;9.834;2023-02-28T10:47:37;7.40;;;2.60;;
75823;SDS011;64457;51.976;9.834;2023-02-28T10:50:28;8.90;;;3.00;;
75823;SDS011;64457;51.976;9.834;2023-02-28T10:53:10;7.80;;;2.73;;
75823;SDS011;64457;51.976;9.834;2023-02-28T10:55:56;7.20;;;2.93;;
75823;SDS011;64457;51.976;9.834;2023-02-28T10:58:27;8.33;;;2.70;;
75823;SDS011;64457;51.976;9.834;2023-02-28T11:00:55;6.60;;;2.60;;
75823;SDS011;64457;51.976;9.834;2023-02-28T11:03:28;9.30;;;3.03;;
75823;SDS011;64457;51.976;9.834;2023-02-28T11:06:03;9.70;;;2.83;;
75823;SDS011;64457;51.976;9.834;2023-02-28T11:08:34;8.60;;;2.57;;
75823;SDS011;64457;51.976;9.834;2023-02-28T11:11:10;7.20;;;2.60;;
75823;SDS011;64457;51.976;9.834;2023-02-28T11:13:38;8.97;;;3.70;;
75823;SDS011;64457;51.976;9.834;2023-02-28T11:16:05;6.60;;;2.87;;
75823;SDS011;64457;51.976;9.834;2023-02-28T11:18:38;8.80;;;3.50;;
75823;SDS011;64457;51.976;9.834;2023-02-28T11:21:15;6.80;;;3.00;;
75823;SDS011;64457;51.976;9.834;2023-02-28T11:23:48;7.30;;;3.10;;
75823;SDS011;64457;51.976;9.834;2023-02-28T11:26:37;7.20;;;2.77;;
75823;SDS011;64457;51.976;9.834;2023-02-28T11:29:12;9.70;;;2.90;;
75823;SDS011;64457;51.976;9.834;2023-02-28T11:32:00;7.50;;;3.00;;
75823;SDS011;64457;51.976;9.834;2023-02-28T11:34:39;9.10;;;3.20;;
75823;SDS011;64457;51.976;9.834;2023-02-28T11:37:11;8.53;;;3.00;;
75823;SDS011;64457;51.976;9.834;2023-02-28T11:39:41;5.70;;;2.70;;
75823;SDS011;64457;51.976;9.834;2023-02-28T11:42:24;7.80;;;3.00;;
75823;SDS011;64457;51.976;9.834;2023-02-28T11:45:14;10.30;;;2.77;;
75823;SDS011;64457;51.976;9.834;2023-02-28T11:47:53;7.17;;;2.63;;
75823;SDS011;64457;51.976;9.834;2023-02-28T11:50:39;7.90;;;3.00;;
75823;SDS011;64457;51.976;9.834;2023-02-28T11:53:19;7.80;;;2.57;;
75823;SDS011;64457;51.976;9.834;2023-02-28T11:56:11;5.77;;;2.80;;
75823;SDS011;64457;51.976;9.834;2023-02-28T11:58:49;11.23;;;3.00;;
75823;SDS011;64457;51.976;9.834;2023-02-28T12:01:28;10.03;;;2.80;;
75823;SDS011;64457;51.976;9.834;2023-02-28T12:04:11;10.17;;;2.30;;
75823;SDS011;64457;51.976;9.834;2023-02-28T12:06:52;9.50;;;3.17;;
75823;SDS011;64457;51.976;9.834;2023-02-28T12:09:42;8.63;;;2.63;;
75823;SDS011;64457;51.976;9.834;2023-02-28T12:12:23;6.20;;;2.47;;
75823;SDS011;64457;51.976;9.834;2023-02-28T12:15:14;7.90;;;3.03;;
75823;SDS011;64457;51.976;9.834;2023-02-28T12:17:58;6.17;;;2.70;;
75823;SDS011;64457;51.976;9.834;2023-02-28T12:20:43;9.17;;;2.70;;
75823;SDS011;64457;51.976;9.834;2023-02-28T12:23:21;7.60;;;3.03;;
75823;SDS011;64457;51.976;9.834;2023-02-28T12:26:12;6.70;;;2.57;;
75823;SDS011;64457;51.976;9.834;2023-02-28T12:28:46;8.80;;;2.93;;
75823;SDS011;64457;51.976;9.834;2023-02-28T12:31:18;6.93;;;2.70;;
75823;SDS011;64457;51.976;9.834;2023-02-28T12:33:51;7.60;;;2.93;;
75823;SDS011;64457;51.976;9.834;2023-02-28T12:36:21;6.37;;;2.80;;
75823;SDS011;64457;51.976;9.834;2023-02-28T12:38:52;6.20;;;2.70;;
75823;SDS011;64457;51.976;9.834;2023-02-28T12:41:29;7.43;;;3.30;;
75823;SDS011;64457;51.976;9.834;2023-02-28T12:44:07;7.13;;;2.57;;
75823;SDS011;64457;51.976;9.834;2023-02-28T12:46:40;10.77;;;3.63;;
75823;SDS011;64457;51.976;9.834;2023-02-28T12:49:10;7.20;;;3.23;;
75823;SDS011;64457;51.976;9.834;2023-02-28T12:51:42;9.53;;;3.10;;
75823;SDS011;64457;51.976;9.834;2023-02-28T12:54:14;8.33;;;2.80;;
75823;SDS011;64457;51.976;9.834;2023-02-28T12:56:52;7.20;;;2.83;;
75823;SDS011;64457;51.976;9.834;2023-02-28T12:59:30;6.30;;;3.00;;
75823;SDS011;64457;51.976;9.834;2023-02-28T13:05:24;6.90;;;3.20;;
75823;SDS011;64457;51.976;9.834;2023-02-28T13:08:35;7.70;;;3.27;;
75823;SDS011;64457;51.976;9.834;2023-02-28T13:11:32;7.33;;;3.13;;
75823;SDS011;64457;51.976;9.834;2023-02-28T13:14:15;8.57;;;3.30;;
75823;SDS011;64457;51.976;9.834;2023-02-28T13:16:55;5.63;;;3.10;;
75823;SDS011;64457;51.976;9.834;2023-02-28T13:19:27;6.87;;;3.00;;
75823;SDS011;64457;51.976;9.834;2023-02-28T13:21:57;6.57;;;3.13;;
75823;SDS011;64457;51.976;9.834;2023-02-28T13:24:42;7.77;;;3.00;;
75823;SDS011;64457;51.976;9.834;2023-02-28T13:27:20;7.30;;;3.03;;
75823;SDS011;64457;51.976;9.834;2023-02-28T13:29:53;8.10;;;3.87;;
75823;SDS011;64457;51.976;9.834;2023-02-28T13:32:33;8.47;;;3.27;;
75823;SDS011;64457;51.976;9.834;2023-02-28T13:38:16;8.10;;;3.60;;
75823;SDS011;64457;51.976;9.834;2023-02-28T13:44:12;7.33;;;3.30;;
75823;SDS011;64457;51.976;9.834;2023-02-28T13:49:50;7.50;;;2.97;;
75823;SDS011;64457;51.976;9.834;2023-02-28T13:52:20;6.73;;;2.97;;
75823;SDS011;64457;51.976;9.834;2023-02-28T13:54:57;7.23;;;3.00;;
75823;SDS011;64457;51.976;9.834;2023-02-28T13:57:56;6.00;;;3.00;;
75823;SDS011;64457;51.976;9.834;2023-02-28T14:00:43;8.50;;;3.40;;
75823;SDS011;64457;51.976;9.834;2023-02-28T14:03:38;7.40;;;3.40;;
75823;SDS011;64457;51.976;9.834;2023-02-28T14:06:25;7.60;;;3.50;;
75823;SDS011;64457;51.976;9.834;2023-02-28T14:08:56;6.67;;;2.90;;
75823;SDS011;64457;51.976;9.834;2023-02-28T14:11:30;6.63;;;2.97;;
75823;SDS011;64457;51.976;9.834;2023-02-28T14:14:03;6.90;;;3.23;;
75823;SDS011;64457;51.976;9.834;2023-02-28T14:16:35;6.43;;;2.90;;
75823;SDS011;64457;51.976;9.834;2023-02-28T14:19:11;6.80;;;3.33;;
75823;SDS011;64457;51.976;9.834;2023-02-28T14:21:45;7.10;;;3.40;;
75823;SDS011;64457;51.976;9.834;2023-02-28T14:27:37;5.87;;;2.80;;
75823;SDS011;64457;51.976;9.834;2023-02-28T14:30:26;7.10;;;2.87;;
75823;SDS011;64457;51.976;9.834;2023-02-28T14:33:22;7.23;;;3.23;;
75823;SDS011;64457;51.976;9.834;2023-02-28T14:36:01;6.90;;;3.20;;
75823;SDS011;64457;51.976;9.834;2023-02-28T14:38:41;7.30;;;3.30;;
75823;SDS011;64457;51.976;9.834;2023-02-28T14:41:18;6.17;;;2.70;;
75823;SDS011;64457;51.976;9.834;2023-02-28T14:43:50;5.87;;;3.00;;
75823;SDS011;64457;51.976;9.834;2023-02-28T14:46:22;5.83;;;2.70;;
75823;SDS011;64457;51.976;9.834;2023-02-28T14:48:54;7.10;;;2.93;;
75823;SDS011;64457;51.976;9.834;2023-02-28T14:51:23;9.10;;;3.70;;
75823;SDS011;64457;51.976;9.834;2023-02-28T14:53:55;7.07;;;3.67;;
75823;SDS011;64457;51.976;9.834;2023-02-28T14:56:27;7.63;;;3.57;;
75823;SDS011;64457;51.976;9.834;2023-02-28T14:59:00;7.90;;;4.10;;
75823;SDS011;64457;51.976;9.834;2023-02-28T15:01:28;6.83;;;3.37;;
75823;SDS011;64457;51.976;9.834;2023-02-28T15:03:57;6.20;;;3.50;;
75823;SDS011;64457;51.976;9.834;2023-02-28T15:06:29;6.37;;;3.37;;
75823;SDS011;64457;51.976;9.834;2023-02-28T15:11:45;7.80;;;3.50;;
75823;SDS011;64457;51.976;9.834;2023-02-28T15:14:19;8.13;;;3.30;;
75823;SDS011;64457;51.976;9.834;2023-02-28T15:16:50;8.40;;;3.90;;
75823;SDS011;64457;51.976;9.834;2023-02-28T15:19:23;9.53;;;3.87;;
75823;SDS011;64457;51.976;9.834;2023-02-28T15:21:55;7.80;;;3.50;;
75823;SDS011;64457;51.976;9.834;2023-02-28T15:24:30;8.60;;;3.87;;
75823;SDS011;64457;51.976;9.834;2023-02-28T15:27:05;6.53;;;3.43;;
75823;SDS011;64457;51.976;9.834;2023-02-28T15:29:37;8.40;;;4.23;;
75823;SDS011;64457;51.976;9.834;2023-02-28T15:32:21;10.17;;;4.50;;
75823;SDS011;64457;51.976;9.834;2023-02-28T15:34:56;7.90;;;4.33;;
75823;SDS011;64457;51.976;9.834;2023-02-28T15:37:28;8.80;;;3.73;;
75823;SDS011;64457;51.976;9.834;2023-02-28T15:40:05;7.10;;;4.00;;
75823;SDS011;64457;51.976;9.834;2023-02-28T15:42:41;7.57;;;3.73;;
75823;SDS011;64457;51.976;9.834;2023-02-28T15:45:29;7.63;;;4.00;;
75823;SDS011;64457;51.976;9.834;2023-02-28T15:48:03;8.67;;;3.57;;